Time;durP1;ratioP1;P1;durP2;ratioP2;P2;SDS_P1;SDS_P2;PMS_P1;PMS_P2;Temp;Humidity;BMP_temperature;BMP_pressure;BME280_temperature;BME280_humidity;BME280_pressure;Samples;Min_cycle;Max_cycle;Signal;HPM_P1;HPM_P2
2021/07/28 00:00:08;;;;;;;;;;;24.80;52.20;;;;;;8336279;28;19920;-45
2021/07/28 00:04:08;;;;;;;;;;;24.80;52.20;;;;;;8335358;28;20398;-45
2021/07/28 00:08:09;;;;;;;;;;;24.80;52.20;;;;;;8334902;28;19921;-45
2021/07/28 00:12:10;;;;;;;;;;;24.80;52.20;;;;;;8335150;28;19917;-44
2021/07/28 00:16:12;;;;;;;;;;;24.80;52.20;;;;;;8336024;28;19964;-45
2021/07/28 00:24:35;;;;;;;;;;;24.80;52.20;;;;;;8340948;28;19932;-45
2021/07/28 00:28:35;;;;;;;;;;;24.80;52.20;;;;;;8335048;28;19971;-45
2021/07/28 00:32:36;;;;;;;;;;;24.70;52.10;;;;;;8334274;28;19917;-44
2021/07/28 00:36:36;;;;;;;;;;;24.70;52.10;;;;;;8335229;28;19921;-46
2021/07/28 00:40:37;;;;;;;;;;;24.70;52.10;;;;;;8334324;28;20286;-45
2021/07/28 00:44:37;;;;;;;;;;;24.70;52.10;;;;;;8333735;28;19932;-44
2021/07/28 00:48:38;;;;;;;;;;;24.70;52.00;;;;;;8334314;28;19920;-44
2021/07/28 00:52:39;;;;;;;;;;;24.70;52.00;;;;;;8334896;28;20020;-45
2021/07/28 00:56:40;;;;;;;;;;;24.70;52.00;;;;;;8332881;28;20369;-46
2021/07/28 01:00:40;;;;;;;;;;;24.70;52.00;;;;;;8333965;28;19990;-44
2021/07/28 01:04:41;;;;;;;;;;;24.70;52.00;;;;;;8333688;28;20054;-45
2021/07/28 01:08:41;;;;;;;;;;;24.70;52.00;;;;;;8333684;28;19921;-45
2021/07/28 01:12:45;;;;;;;;;;;24.70;52.00;;;;;;8333700;28;19970;-45
2021/07/28 01:16:46;;;;;;;;;;;24.70;52.00;;;;;;8333395;28;20278;-47
2021/07/28 01:20:46;;;;;;;;;;;24.70;52.00;;;;;;8333139;28;20378;-45
2021/07/28 01:24:47;;;;;;;;;;;24.60;51.90;;;;;;8332984;28;19969;-45
2021/07/28 01:28:47;;;;;;;;;;;24.60;51.90;;;;;;8333267;28;21262;-45
2021/07/28 01:32:48;;;;;;;;;;;24.60;51.90;;;;;;8332730;28;20432;-45
2021/07/28 01:36:49;;;;;;;;;;;24.60;52.00;;;;;;8332860;28;19936;-45
2021/07/28 01:40:50;;;;;;;;;;;24.70;52.00;;;;;;8332337;28;19917;-46
2021/07/28 01:44:50;;;;;;;;;;;24.60;51.90;;;;;;8332994;28;19975;-45
2021/07/28 01:48:51;;;;;;;;;;;24.60;52.00;;;;;;8332212;28;19917;-45
2021/07/28 01:52:51;;;;;;;;;;;24.60;51.90;;;;;;8331864;28;19913;-46
2021/07/28 01:56:52;;;;;;;;;;;24.60;52.50;;;;;;8331807;28;19947;-45
2021/07/28 02:00:52;;;;;;;;;;;24.60;51.90;;;;;;8332249;28;19975;-45
2021/07/28 02:04:56;;;;;;;;;;;24.60;51.90;;;;;;8331160;28;19925;-48
2021/07/28 02:08:57;;;;;;;;;;;24.60;51.90;;;;;;8332166;28;20003;-46
2021/07/28 02:12:58;;;;;;;;;;;24.60;52.00;;;;;;8331585;28;19952;-44
2021/07/28 02:16:58;;;;;;;;;;;24.50;51.90;;;;;;8331039;28;20024;-45
2021/07/28 02:20:59;;;;;;;;;;;24.60;51.90;;;;;;8331914;28;19921;-47
2021/07/28 02:24:59;;;;;;;;;;;24.50;51.90;;;;;;8330999;28;20020;-46
2021/07/28 02:29:00;;;;;;;;;;;24.50;51.90;;;;;;8330861;28;20317;-45
2021/07/28 02:33:00;;;;;;;;;;;24.50;52.00;;;;;;8331190;28;19959;-46
2021/07/28 02:37:01;;;;;;;;;;;24.60;52.00;;;;;;8331789;28;19996;-44
2021/07/28 02:41:02;;;;;;;;;;;24.50;51.90;;;;;;8330536;28;20004;-47
2021/07/28 02:45:03;;;;;;;;;;;24.50;51.90;;;;;;8330529;28;19925;-44
2021/07/28 02:49:03;;;;;;;;;;;24.50;52.40;;;;;;8330395;28;19996;-45
2021/07/28 02:53:04;;;;;;;;;;;24.50;51.90;;;;;;8330092;28;19971;-44
2021/07/28 02:57:04;;;;;;;;;;;24.50;51.90;;;;;;8331205;28;19921;-47
2021/07/28 03:01:05;;;;;;;;;;;24.50;51.90;;;;;;8330244;28;19928;-45
2021/07/28 03:05:05;;;;;;;;;;;24.50;51.90;;;;;;8329726;28;22491;-46
2021/07/28 03:09:06;;;;;;;;;;;24.50;51.90;;;;;;8330336;28;19925;-45
2021/07/28 03:13:06;;;;;;;;;;;24.50;51.90;;;;;;8330846;28;20325;-44
2021/07/28 03:17:06;;;;;;;;;;;24.50;51.90;;;;;;8331437;28;20385;-45
2021/07/28 03:21:07;;;;;;;;;;;24.50;52.00;;;;;;8336901;28;20004;-45
2021/07/28 03:25:08;;;;;;;;;;;24.40;51.90;;;;;;8336701;28;19940;-44
2021/07/28 03:29:08;;;;;;;;;;;24.40;51.90;;;;;;8336961;28;20316;-44
2021/07/28 03:33:08;;;;;;;;;;;24.50;51.90;;;;;;8336738;28;19917;-44
2021/07/28 03:37:09;;;;;;;;;;;24.40;51.90;;;;;;8336433;28;19917;-44
2021/07/28 03:41:09;;;;;;;;;;;24.40;51.90;;;;;;8335813;28;20262;-44
2021/07/28 03:45:10;;;;;;;;;;;24.40;51.90;;;;;;8336140;28;19940;-44
2021/07/28 03:49:10;;;;;;;;;;;24.40;51.90;;;;;;8336850;28;19921;-44
2021/07/28 03:53:11;;;;;;;;;;;24.40;51.90;;;;;;8335536;28;20403;-45
2021/07/28 03:57:12;;;;;;;;;;;24.40;51.90;;;;;;8335972;28;19918;-44
2021/07/28 04:01:12;;;;;;;;;;;24.40;51.90;;;;;;8335669;28;19944;-45
2021/07/28 04:05:13;;;;;;;;;;;24.40;51.90;;;;;;8335865;28;20024;-44
2021/07/28 04:09:14;;;;;;;;;;;24.40;51.90;;;;;;8335364;28;19944;-45
2021/07/28 04:13:15;;;;;;;;;;;24.40;51.90;;;;;;8335391;28;19917;-44
2021/07/28 04:17:15;;;;;;;;;;;24.40;51.90;;;;;;8334951;28;19917;-44
2021/07/28 04:21:16;;;;;;;;;;;24.40;51.90;;;;;;8335568;28;20023;-45
2021/07/28 04:25:16;;;;;;;;;;;24.40;51.90;;;;;;8335400;28;20382;-45
2021/07/28 04:29:16;;;;;;;;;;;24.30;51.90;;;;;;8333381;28;19921;-44
2021/07/28 04:33:17;;;;;;;;;;;24.40;51.90;;;;;;8334830;28;20393;-44
2021/07/28 04:37:17;;;;;;;;;;;24.30;51.90;;;;;;8334506;28;19922;-44
2021/07/28 04:41:18;;;;;;;;;;;24.30;51.90;;;;;;8334913;28;19925;-44
2021/07/28 04:45:19;;;;;;;;;;;24.30;51.90;;;;;;8334479;28;19949;-46
2021/07/28 04:49:20;;;;;;;;;;;24.30;51.90;;;;;;8334290;28;19975;-44
2021/07/28 04:53:20;;;;;;;;;;;24.30;51.90;;;;;;8333687;28;20047;-45
2021/07/28 04:57:21;;;;;;;;;;;24.30;51.90;;;;;;8334579;28;19913;-44
2021/07/28 05:01:21;;;;;;;;;;;24.30;51.90;;;;;;8333698;28;19924;-45
2021/07/28 05:05:22;;;;;;;;;;;24.30;51.90;;;;;;8333230;28;20401;-44
2021/07/28 05:09:22;;;;;;;;;;;24.30;51.90;;;;;;8333891;28;19917;-44
2021/07/28 05:13:23;;;;;;;;;;;24.30;51.90;;;;;;8333497;28;20333;-44
2021/07/28 05:17:24;;;;;;;;;;;24.30;51.90;;;;;;8333426;28;20309;-44
2021/07/28 05:21:25;;;;;;;;;;;24.30;51.90;;;;;;8333342;28;19928;-47
2021/07/28 05:25:28;;;;;;;;;;;24.30;51.90;;;;;;8333098;28;20425;-46
2021/07/28 05:29:28;;;;;;;;;;;24.30;51.90;;;;;;8332580;28;19924;-45
2021/07/28 05:33:28;;;;;;;;;;;24.30;51.90;;;;;;8333504;28;19920;-46
2021/07/28 05:37:29;;;;;;;;;;;24.30;51.90;;;;;;8332659;28;20343;-45
2021/07/28 05:41:29;;;;;;;;;;;24.30;51.90;;;;;;8331926;28;20337;-45
2021/07/28 05:45:30;;;;;;;;;;;24.30;51.90;;;;;;8332493;28;20303;-45
2021/07/28 05:49:30;;;;;;;;;;;24.20;51.90;;;;;;8333050;28;20486;-45
2021/07/28 05:53:32;;;;;;;;;;;24.20;51.90;;;;;;8331544;28;19928;-45
2021/07/28 05:57:32;;;;;;;;;;;24.20;51.90;;;;;;8332223;28;19940;-45
2021/07/28 06:01:32;;;;;;;;;;;24.20;51.90;;;;;;8331841;28;19917;-46
2021/07/28 06:05:33;;;;;;;;;;;24.20;51.90;;;;;;8331199;28;19940;-44
2021/07/28 06:09:33;;;;;;;;;;;24.20;51.90;;;;;;8332614;28;19917;-44
2021/07/28 06:13:34;;;;;;;;;;;24.20;51.90;;;;;;8331740;28;19917;-44
2021/07/28 06:17:34;;;;;;;;;;;24.20;51.90;;;;;;8331046;28;19925;-46
2021/07/28 06:21:35;;;;;;;;;;;24.20;51.90;;;;;;8331062;28;19921;-45
2021/07/28 06:25:35;;;;;;;;;;;24.20;51.90;;;;;;8331965;28;20290;-44
2021/07/28 06:29:36;;;;;;;;;;;24.20;51.90;;;;;;8330638;28;20358;-45
2021/07/28 06:33:36;;;;;;;;;;;24.20;51.90;;;;;;8331247;28;19971;-45
2021/07/28 06:37:37;;;;;;;;;;;24.20;51.90;;;;;;8330938;28;20003;-46
2021/07/28 06:41:37;;;;;;;;;;;24.20;51.90;;;;;;8330818;28;19917;-45
2021/07/28 06:45:38;;;;;;;;;;;24.20;51.90;;;;;;8330942;28;19918;-45
2021/07/28 06:49:38;;;;;;;;;;;24.20;51.90;;;;;;8330561;28;19917;-45
2021/07/28 06:53:38;;;;;;;;;;;24.20;51.90;;;;;;8329560;28;19921;-45
2021/07/28 06:57:39;;;;;;;;;;;24.10;51.90;;;;;;8330340;28;19944;-45
2021/07/28 07:01:40;;;;;;;;;;;24.10;51.90;;;;;;8331067;28;19913;-45
2021/07/28 07:05:42;;;;;;;;;;;24.10;51.90;;;;;;8329833;28;19967;-45
2021/07/28 07:09:42;;;;;;;;;;;24.10;51.90;;;;;;8330168;28;20401;-45
2021/07/28 07:13:42;;;;;;;;;;;24.10;51.80;;;;;;8330415;28;19971;-45
2021/07/28 07:17:43;;;;;;;;;;;24.10;51.80;;;;;;8330426;28;19952;-45
2021/07/28 07:21:43;;;;;;;;;;;24.10;51.80;;;;;;8329980;28;20020;-45
2021/07/28 07:25:44;;;;;;;;;;;24.10;51.80;;;;;;8329839;28;20013;-45
2021/07/28 07:29:46;;;;;;;;;;;24.10;51.80;;;;;;8329426;28;19921;-45
2021/07/28 07:33:46;;;;;;;;;;;24.10;51.90;;;;;;8330039;28;19913;-46
2021/07/28 07:37:47;;;;;;;;;;;24.10;51.90;;;;;;8329863;28;19913;-46
2021/07/28 07:41:47;;;;;;;;;;;24.10;51.80;;;;;;8329836;28;19925;-46
2021/07/28 07:45:47;;;;;;;;;;;24.10;51.90;;;;;;8329721;28;19917;-45
2021/07/28 07:49:48;;;;;;;;;;;24.10;51.90;;;;;;8329150;28;19964;-46
2021/07/28 07:53:48;;;;;;;;;;;24.10;51.90;;;;;;8330442;28;19943;-46
2021/07/28 07:57:49;;;;;;;;;;;24.10;51.90;;;;;;8329517;28;19973;-45
2021/07/28 08:01:49;;;;;;;;;;;24.10;51.90;;;;;;8329219;28;19932;-46
2021/07/28 08:05:50;;;;;;;;;;;24.10;51.90;;;;;;8333648;28;19926;-45
2021/07/28 08:09:50;;;;;;;;;;;24.10;51.90;;;;;;8336219;28;20000;-46
2021/07/28 08:13:51;;;;;;;;;;;24.10;51.90;;;;;;8334875;28;19917;-45
2021/07/28 08:17:51;;;;;;;;;;;24.10;51.90;;;;;;8335572;28;19948;-46
2021/07/28 08:21:51;;;;;;;;;;;24.10;51.90;;;;;;8334962;28;20386;-49
2021/07/28 08:25:52;;;;;;;;;;;24.10;51.90;;;;;;8334404;28;19913;-46
2021/07/28 08:29:53;;;;;;;;;;;24.10;51.90;;;;;;8335447;28;19917;-45
2021/07/28 08:33:53;;;;;;;;;;;24.10;51.90;;;;;;8335147;28;20428;-46
2021/07/28 08:37:54;;;;;;;;;;;24.10;51.90;;;;;;8334031;28;19917;-46
2021/07/28 08:41:59;;;;;;;;;;;24.10;51.90;;;;;;8334713;28;20282;-46
2021/07/28 08:46:00;;;;;;;;;;;24.10;51.90;;;;;;8335179;28;19917;-47
2021/07/28 08:50:05;;;;;;;;;;;24.10;51.90;;;;;;8333933;28;19917;-46
2021/07/28 08:54:05;;;;;;;;;;;24.10;51.90;;;;;;8334393;28;19948;-46
2021/07/28 08:58:07;;;;;;;;;;;24.10;51.90;;;;;;8333973;28;19917;-46
2021/07/28 09:02:08;;;;;;;;;;;24.10;51.90;;;;;;8333646;28;19921;-46
2021/07/28 09:06:24;;;;;;;;;;;24.10;51.90;;;;;;8334161;28;19944;-47
2021/07/28 09:10:26;;;;;;;;;;;24.10;51.80;;;;;;8333666;28;19927;-46
2021/07/28 09:14:30;;;;;;;;;;;24.10;51.90;;;;;;8332552;28;19947;-46
2021/07/28 09:18:32;;;;;;;;;;;24.10;51.90;;;;;;8333501;28;19924;-45
2021/07/28 09:22:37;;;;;;;;;;;24.10;51.80;;;;;;8334004;28;19921;-46
2021/07/28 09:26:50;;;;;;;;;;;24.10;51.80;;;;;;8332610;28;20007;-45
2021/07/28 09:30:50;;;;;;;;;;;24.00;51.80;;;;;;8333105;28;19918;-45
2021/07/28 09:34:53;;;;;;;;;;;24.10;51.80;;;;;;8332470;28;19917;-46
2021/07/28 09:38:54;;;;;;;;;;;24.00;51.80;;;;;;8332971;28;20386;-45
2021/07/28 09:43:02;;;;;;;;;;;24.10;51.80;;;;;;8333352;28;20016;-46
2021/07/28 09:47:13;;;;;;;;;;;24.10;51.80;;;;;;8332069;28;20342;-45
2021/07/28 09:51:22;;;;;;;;;;;24.10;51.80;;;;;;8332411;28;19917;-46
2021/07/28 09:55:24;;;;;;;;;;;24.10;51.80;;;;;;8332391;28;20271;-45
2021/07/28 09:59:26;;;;;;;;;;;24.10;51.80;;;;;;8332024;28;19924;-43
2021/07/28 10:03:28;;;;;;;;;;;24.10;51.70;;;;;;8332866;28;19925;-46
2021/07/28 10:07:29;;;;;;;;;;;24.10;51.70;;;;;;8332376;28;19921;-46
2021/07/28 10:11:30;;;;;;;;;;;24.10;51.70;;;;;;8331703;28;19917;-45
2021/07/28 10:15:32;;;;;;;;;;;24.10;51.70;;;;;;8331598;28;19963;-46
2021/07/28 10:19:32;;;;;;;;;;;24.10;51.70;;;;;;8332136;28;19932;-46
2021/07/28 10:23:33;;;;;;;;;;;24.10;51.70;;;;;;8330811;28;19955;-45
2021/07/28 10:27:38;;;;;;;;;;;24.10;51.60;;;;;;8330674;28;20324;-44
2021/07/28 10:31:44;;;;;;;;;;;24.20;51.70;;;;;;8331118;28;20358;-44
2021/07/28 10:35:51;;;;;;;;;;;24.20;51.70;;;;;;8330999;28;19942;-45
2021/07/28 10:39:51;;;;;;;;;;;24.20;51.60;;;;;;8331463;28;19913;-44
2021/07/28 10:44:11;;;;;;;;;;;24.20;51.60;;;;;;8330270;28;20075;-44
2021/07/28 10:48:31;;;;;;;;;;;24.20;51.60;;;;;;8331008;28;19917;-45
2021/07/28 10:52:36;;;;;;;;;;;24.20;51.60;;;;;;8330533;28;19917;-44
2021/07/28 10:56:56;;;;;;;;;;;24.30;52.10;;;;;;8330125;28;19920;-44
2021/07/28 11:00:58;;;;;;;;;;;24.30;51.60;;;;;;8330901;28;19917;-44
2021/07/28 11:05:37;;;;;;;;;;;24.30;51.60;;;;;;8329745;28;19925;-45
2021/07/28 11:09:38;;;;;;;;;;;24.30;51.50;;;;;;8197774;29;20391;-45
2021/07/28 11:13:42;;;;;;;;;;;24.30;51.50;;;;;;8258999;28;19918;-45
2021/07/28 11:17:45;;;;;;;;;;;24.30;51.40;;;;;;8329922;28;20019;-45
2021/07/28 11:21:46;;;;;;;;;;;24.40;51.40;;;;;;8330547;28;20432;-46
2021/07/28 11:25:47;;;;;;;;;;;24.40;51.40;;;;;;8329402;28;19917;-44
2021/07/28 11:30:07;;;;;;;;;;;24.40;51.30;;;;;;8330097;28;19940;-45
2021/07/28 11:34:21;;;;;;;;;;;24.40;51.80;;;;;;8329999;28;19971;-45
2021/07/28 11:38:26;;;;;;;;;;;24.40;51.20;;;;;;8331659;28;19914;-45
2021/07/28 11:42:27;;;;;;;;;;;24.40;51.20;;;;;;8337111;28;20362;-44
2021/07/28 11:46:28;;;;;;;;;;;24.40;51.20;;;;;;8336343;28;19924;-44
2021/07/28 11:50:37;;;;;;;;;;;24.40;51.30;;;;;;8335912;28;19917;-45
2021/07/28 11:54:37;;;;;;;;;;;24.50;51.30;;;;;;8336050;28;19944;-44
2021/07/28 11:58:45;;;;;;;;;;;24.40;51.20;;;;;;8336681;28;20260;-44
2021/07/28 12:02:46;;;;;;;;;;;24.50;51.30;;;;;;8333846;28;19933;-45
2021/07/28 12:06:46;;;;;;;;;;;24.50;51.30;;;;;;8327514;28;19921;-46
2021/07/28 12:11:00;;;;;;;;;;;24.50;51.30;;;;;;8323423;28;19918;-45
2021/07/28 12:15:10;;;;;;;;;;;24.50;51.20;;;;;;8329190;28;19961;-45
2021/07/28 12:19:11;;;;;;;;;;;24.60;51.30;;;;;;8336132;28;19913;-45
2021/07/28 12:23:21;;;;;;;;;;;24.60;51.20;;;;;;8305440;28;21282;-44
2021/07/28 12:27:25;;;;;;;;;;;24.60;51.20;;;;;;8302565;28;19918;-45
2021/07/28 12:31:27;;;;;;;;;;;24.60;51.10;;;;;;8302277;28;19917;-45
2021/07/28 12:35:29;;;;;;;;;;;24.60;51.10;;;;;;8301847;28;19925;-45
2021/07/28 12:39:29;;;;;;;;;;;24.60;51.10;;;;;;8303182;28;19917;-47
2021/07/28 12:43:31;;;;;;;;;;;24.60;51.00;;;;;;8326010;28;19932;-44
2021/07/28 12:47:32;;;;;;;;;;;24.70;51.00;;;;;;8316621;28;19924;-45
2021/07/28 12:51:32;;;;;;;;;;;24.70;51.00;;;;;;8333752;28;19992;-45
2021/07/28 12:55:33;;;;;;;;;;;24.70;51.00;;;;;;8334888;28;19913;-45
2021/07/28 12:59:33;;;;;;;;;;;24.70;51.00;;;;;;8333762;28;19961;-46
2021/07/28 13:03:36;;;;;;;;;;;24.70;51.00;;;;;;8333894;28;19925;-46
2021/07/28 13:07:45;;;;;;;;;;;24.70;50.90;;;;;;8333631;28;19932;-46
2021/07/28 13:11:45;;;;;;;;;;;24.80;50.90;;;;;;8333914;28;20466;-44
2021/07/28 13:15:46;;;;;;;;;;;24.80;50.90;;;;;;8333884;28;19989;-47
2021/07/28 13:19:47;;;;;;;;;;;24.80;50.90;;;;;;8333140;28;19917;-46
2021/07/28 13:23:47;;;;;;;;;;;24.80;51.00;;;;;;8333581;28;19956;-46
2021/07/28 13:27:48;;;;;;;;;;;24.80;50.90;;;;;;8333116;28;19941;-49
2021/07/28 13:31:49;;;;;;;;;;;24.80;50.90;;;;;;8333376;28;19960;-49
2021/07/28 13:35:49;;;;;;;;;;;24.80;50.90;;;;;;8332513;28;19917;-46
2021/07/28 13:39:50;;;;;;;;;;;24.80;51.40;;;;;;8316007;28;19918;-46
2021/07/28 13:43:50;;;;;;;;;;;24.80;50.90;;;;;;8299262;28;19961;-46
2021/07/28 13:47:51;;;;;;;;;;;24.80;51.00;;;;;;8300501;28;19920;-48
2021/07/28 13:51:51;;;;;;;;;;;24.80;50.90;;;;;;8299580;28;19918;-44
2021/07/28 13:55:51;;;;;;;;;;;24.90;51.00;;;;;;8299330;28;19917;-45
2021/07/28 13:59:52;;;;;;;;;;;24.80;51.10;;;;;;8299269;28;19924;-47
2021/07/28 14:03:52;;;;;;;;;;;24.80;50.90;;;;;;8298339;28;19921;-48
2021/07/28 14:07:53;;;;;;;;;;;24.90;50.90;;;;;;8299310;28;19929;-46
2021/07/28 14:11:54;;;;;;;;;;;24.80;50.90;;;;;;8323374;28;20357;-45
2021/07/28 14:15:54;;;;;;;;;;;24.80;50.90;;;;;;8331567;28;19917;-47
2021/07/28 14:19:55;;;;;;;;;;;24.90;50.90;;;;;;8331146;28;20003;-46
2021/07/28 14:23:55;;;;;;;;;;;24.80;50.90;;;;;;8332479;28;20378;-47
2021/07/28 14:27:55;;;;;;;;;;;24.80;50.80;;;;;;8331530;28;19975;-47
2021/07/28 14:31:56;;;;;;;;;;;24.90;50.80;;;;;;8330611;28;19918;-49
2021/07/28 14:35:57;;;;;;;;;;;24.80;50.80;;;;;;8330959;28;19917;-49
2021/07/28 14:39:57;;;;;;;;;;;24.90;50.80;;;;;;8331872;28;20351;-47
2021/07/28 14:43:58;;;;;;;;;;;24.90;50.70;;;;;;8330360;28;19925;-47
2021/07/28 14:47:59;;;;;;;;;;;24.90;50.70;;;;;;8330735;28;19917;-45
2021/07/28 14:51:59;;;;;;;;;;;24.90;50.70;;;;;;8330533;28;19917;-47
2021/07/28 14:55:59;;;;;;;;;;;24.90;50.70;;;;;;8329940;28;19940;-46
2021/07/28 15:00:00;;;;;;;;;;;24.90;50.60;;;;;;8331174;28;19913;-45
2021/07/28 15:04:00;;;;;;;;;;;24.90;50.60;;;;;;8330362;28;20018;-45
2021/07/28 15:08:01;;;;;;;;;;;24.90;51.10;;;;;;8329916;28;19964;-46
2021/07/28 15:12:02;;;;;;;;;;;25.00;50.70;;;;;;8329932;28;20011;-48
2021/07/28 15:16:03;;;;;;;;;;;24.90;50.60;;;;;;8330912;28;20007;-45
2021/07/28 15:20:03;;;;;;;;;;;24.90;50.50;;;;;;8329807;28;19924;-45
2021/07/28 15:24:04;;;;;;;;;;;25.00;50.60;;;;;;8330364;28;19925;-46
2021/07/28 15:28:04;;;;;;;;;;;25.00;50.60;;;;;;8330261;28;19917;-45
2021/07/28 15:32:05;;;;;;;;;;;25.00;50.60;;;;;;8330440;28;19913;-49
2021/07/28 15:36:06;;;;;;;;;;;25.00;50.60;;;;;;8329925;28;20397;-44
2021/07/28 15:40:07;;;;;;;;;;;25.00;50.60;;;;;;8330095;28;19917;-44
2021/07/28 15:44:09;;;;;;;;;;;25.00;50.50;;;;;;8324142;28;20278;-45
2021/07/28 15:48:09;;;;;;;;;;;24.90;50.10;;;;;;8309443;28;19921;-46
2021/07/28 15:52:10;;;;;;;;;;;25.00;50.30;;;;;;8307261;28;19960;-45
2021/07/28 15:56:10;;;;;;;;;;;24.90;50.50;;;;;;8296866;28;19917;-46
2021/07/28 16:00:11;;;;;;;;;;;24.90;50.40;;;;;;8296964;28;19925;-45
2021/07/28 16:04:11;;;;;;;;;;;24.90;50.30;;;;;;8297042;28;20279;-46
2021/07/28 16:08:12;;;;;;;;;;;24.90;50.20;;;;;;8297744;28;19921;-45
2021/07/28 16:12:12;;;;;;;;;;;25.00;50.20;;;;;;8296937;28;19917;-45
2021/07/28 16:16:12;;;;;;;;;;;25.00;50.20;;;;;;8296750;28;20363;-45
2021/07/28 16:20:15;;;;;;;;;;;25.00;50.20;;;;;;8296320;28;19917;-47
2021/07/28 16:24:28;;;;;;;;;;;25.00;50.20;;;;;;8296980;28;19921;-46
2021/07/28 16:28:29;;;;;;;;;;;25.00;50.10;;;;;;8303799;28;19917;-48
2021/07/28 16:32:29;;;;;;;;;;;25.00;50.20;;;;;;8302005;28;20389;-46
2021/07/28 16:36:30;;;;;;;;;;;25.00;50.20;;;;;;8302655;28;20310;-50
2021/07/28 16:40:30;;;;;;;;;;;25.00;50.20;;;;;;8302338;28;19917;-45
2021/07/28 16:44:31;;;;;;;;;;;25.00;50.20;;;;;;8302137;28;19929;-44
2021/07/28 16:48:33;;;;;;;;;;;25.00;50.20;;;;;;8301645;28;19940;-44
2021/07/28 16:52:34;;;;;;;;;;;25.00;50.20;;;;;;8301724;28;20064;-44
2021/07/28 16:56:35;;;;;;;;;;;25.00;50.20;;;;;;8300934;28;19917;-48
2021/07/28 17:00:41;;;;;;;;;;;25.00;50.20;;;;;;8302192;28;19918;-45
2021/07/28 17:04:41;;;;;;;;;;;25.00;50.20;;;;;;8301907;28;19929;-44
2021/07/28 17:08:44;;;;;;;;;;;25.00;50.20;;;;;;8300554;28;19964;-45
2021/07/28 17:12:45;;;;;;;;;;;25.00;50.20;;;;;;8301339;28;20429;-49
2021/07/28 17:16:46;;;;;;;;;;;25.00;50.20;;;;;;8300917;28;19921;-45
2021/07/28 17:20:47;;;;;;;;;;;25.00;50.20;;;;;;8301329;28;20272;-48
2021/07/28 17:24:47;;;;;;;;;;;25.00;50.20;;;;;;8300700;28;19932;-46
2021/07/28 17:28:48;;;;;;;;;;;25.00;50.20;;;;;;8300273;28;19996;-45
2021/07/28 17:32:48;;;;;;;;;;;25.00;50.20;;;;;;8300506;28;20271;-46
2021/07/28 17:36:49;;;;;;;;;;;25.00;50.20;;;;;;8300733;28;20362;-46
2021/07/28 17:40:54;;;;;;;;;;;25.00;50.20;;;;;;8299727;28;19963;-44
2021/07/28 17:44:54;;;;;;;;;;;25.00;50.20;;;;;;8299893;28;19963;-44
2021/07/28 17:48:58;;;;;;;;;;;25.00;50.20;;;;;;8299962;28;19913;-46
2021/07/28 17:52:59;;;;;;;;;;;25.00;50.20;;;;;;8299436;28;20029;-44
2021/07/28 17:56:59;;;;;;;;;;;25.00;50.20;;;;;;8300386;28;20437;-44
2021/07/28 18:00:59;;;;;;;;;;;25.00;50.20;;;;;;8299609;28;19921;-45
2021/07/28 18:05:00;;;;;;;;;;;25.00;50.20;;;;;;8298902;28;19972;-47
2021/07/28 18:09:02;;;;;;;;;;;25.00;50.30;;;;;;8299310;28;19925;-45
2021/07/28 18:13:03;;;;;;;;;;;25.00;50.30;;;;;;8300087;28;19917;-45
2021/07/28 18:17:04;;;;;;;;;;;25.00;50.30;;;;;;8298742;28;20374;-45
2021/07/28 18:21:04;;;;;;;;;;;25.00;50.30;;;;;;8299036;28;19924;-44
2021/07/28 18:25:05;;;;;;;;;;;24.90;50.30;;;;;;8298611;28;20298;-45
2021/07/28 18:29:07;;;;;;;;;;;25.00;50.30;;;;;;8298253;28;19924;-44
2021/07/28 18:33:07;;;;;;;;;;;25.00;50.30;;;;;;8299149;28;19937;-45
2021/07/28 18:37:08;;;;;;;;;;;25.00;50.30;;;;;;8298406;28;19917;-44
2021/07/28 18:41:08;;;;;;;;;;;24.90;50.30;;;;;;8297823;28;19940;-44
2021/07/28 18:45:09;;;;;;;;;;;25.00;50.30;;;;;;8298526;28;20396;-45
2021/07/28 18:49:09;;;;;;;;;;;24.90;50.30;;;;;;8298330;28;20005;-45
2021/07/28 18:53:12;;;;;;;;;;;24.90;50.30;;;;;;8280057;28;19921;-45
2021/07/28 18:57:13;;;;;;;;;;;24.90;50.40;;;;;;8298095;28;20000;-44
2021/07/28 19:01:13;;;;;;;;;;;24.90;50.40;;;;;;8297806;28;19929;-45
2021/07/28 19:05:14;;;;;;;;;;;24.90;50.30;;;;;;8297920;28;20016;-44
2021/07/28 19:09:14;;;;;;;;;;;24.90;50.40;;;;;;8297546;28;20051;-44
2021/07/28 19:13:14;;;;;;;;;;;24.90;50.30;;;;;;8297857;28;19964;-45
2021/07/28 19:17:15;;;;;;;;;;;24.90;50.40;;;;;;8297114;28;19981;-45
2021/07/28 19:21:15;;;;;;;;;;;24.90;50.30;;;;;;8297499;28;19923;-45
2021/07/28 19:25:16;;;;;;;;;;;24.90;50.40;;;;;;8298212;28;19952;-45
2021/07/28 19:29:16;;;;;;;;;;;24.80;50.30;;;;;;8296999;28;19925;-44
2021/07/28 19:33:17;;;;;;;;;;;24.80;50.30;;;;;;8297432;28;19925;-45
2021/07/28 19:37:17;;;;;;;;;;;24.90;50.40;;;;;;8297457;28;19921;-45
2021/07/28 19:41:18;;;;;;;;;;;24.80;50.40;;;;;;8297719;28;20329;-44
2021/07/28 19:45:18;;;;;;;;;;;24.80;50.40;;;;;;8297473;28;20302;-46
2021/07/28 19:49:19;;;;;;;;;;;24.80;50.40;;;;;;8297256;28;19914;-46
2021/07/28 19:53:19;;;;;;;;;;;24.80;50.40;;;;;;8296827;28;19925;-44
2021/07/28 19:57:20;;;;;;;;;;;24.80;50.40;;;;;;8297950;28;19918;-44
2021/07/28 20:01:20;;;;;;;;;;;24.80;50.40;;;;;;8302158;28;19924;-46
2021/07/28 20:05:21;;;;;;;;;;;24.80;50.40;;;;;;8302699;28;20334;-46
2021/07/28 20:09:21;;;;;;;;;;;24.80;50.40;;;;;;8303034;28;19924;-44
2021/07/28 20:13:22;;;;;;;;;;;24.80;50.40;;;;;;8303017;28;19925;-44
2021/07/28 20:17:22;;;;;;;;;;;24.80;50.40;;;;;;8303182;28;20325;-46
2021/07/28 20:21:23;;;;;;;;;;;24.80;50.40;;;;;;8302560;28;19953;-47
2021/07/28 20:25:23;;;;;;;;;;;24.80;50.50;;;;;;8302394;28;20382;-45
2021/07/28 20:29:25;;;;;;;;;;;24.80;50.40;;;;;;8301928;28;20298;-44
2021/07/28 20:33:26;;;;;;;;;;;24.80;50.50;;;;;;8303016;28;19913;-45
2021/07/28 20:37:26;;;;;;;;;;;24.80;50.50;;;;;;8302279;28;19952;-46
2021/07/28 20:41:27;;;;;;;;;;;24.80;50.40;;;;;;8301707;28;19918;-45
2021/07/28 20:45:27;;;;;;;;;;;24.70;50.40;;;;;;8302071;28;20425;-46
2021/07/28 20:49:28;;;;;;;;;;;24.80;50.50;;;;;;8302330;28;19913;-45
2021/07/28 20:53:28;;;;;;;;;;;24.70;50.40;;;;;;8301646;28;19953;-45
2021/07/28 20:57:28;;;;;;;;;;;24.70;50.40;;;;;;8301513;28;19917;-45
2021/07/28 21:01:29;;;;;;;;;;;24.70;50.40;;;;;;8301536;28;20298;-45
2021/07/28 21:05:29;;;;;;;;;;;24.70;50.40;;;;;;8300883;28;19925;-46
2021/07/28 21:09:30;;;;;;;;;;;24.70;50.40;;;;;;8301878;28;19914;-45
2021/07/28 21:13:34;;;;;;;;;;;24.60;50.40;;;;;;8300548;28;19964;-47
2021/07/28 21:17:34;;;;;;;;;;;24.70;50.50;;;;;;8300575;28;20044;-46
2021/07/28 21:21:34;;;;;;;;;;;24.70;50.40;;;;;;8300864;28;19922;-46
2021/07/28 21:25:35;;;;;;;;;;;24.70;50.40;;;;;;8301498;28;20000;-45
2021/07/28 21:29:35;;;;;;;;;;;24.60;50.40;;;;;;8300193;28;20306;-45
2021/07/28 21:33:36;;;;;;;;;;;24.60;50.40;;;;;;8300651;28;19921;-47
2021/07/28 21:37:36;;;;;;;;;;;24.70;50.50;;;;;;8300392;28;19945;-45
2021/07/28 21:41:38;;;;;;;;;;;24.70;50.50;;;;;;8299764;28;19913;-47
2021/07/28 21:50:05;;;;;;;;;;;24.60;50.50;;;;;;8299635;28;19972;-46
2021/07/28 21:54:06;;;;;;;;;;;24.60;50.50;;;;;;8299864;28;19917;-48
2021/07/28 21:58:10;;;;;;;;;;;24.60;50.40;;;;;;8299802;28;19928;-46
2021/07/28 22:02:14;;;;;;;;;;;24.60;51.00;;;;;;8314205;28;20442;-46
2021/07/28 22:06:16;;;;;;;;;;;24.60;50.40;;;;;;8332280;28;19921;-44
2021/07/28 22:10:17;;;;;;;;;;;24.60;50.50;;;;;;8332191;28;19967;-45
2021/07/28 22:14:17;;;;;;;;;;;24.60;50.40;;;;;;8331348;28;19956;-46
2021/07/28 22:18:20;;;;;;;;;;;24.60;50.40;;;;;;8331969;28;19925;-45
2021/07/28 22:22:20;;;;;;;;;;;24.60;50.40;;;;;;8331362;28;20367;-45
2021/07/28 22:26:21;;;;;;;;;;;24.60;50.40;;;;;;8331115;28;19924;-44
2021/07/28 22:30:21;;;;;;;;;;;24.60;50.40;;;;;;8331344;28;19924;-45
2021/07/28 22:34:23;;;;;;;;;;;24.60;50.50;;;;;;8331155;28;19992;-45
2021/07/28 22:38:24;;;;;;;;;;;24.60;50.40;;;;;;8331587;28;19913;-46
2021/07/28 22:42:24;;;;;;;;;;;24.60;50.50;;;;;;8330881;28;19987;-44
2021/07/28 22:46:26;;;;;;;;;;;24.60;50.50;;;;;;8331380;28;19932;-44
2021/07/28 22:54:47;;;;;;;;;;;24.60;50.50;;;;;;8336283;28;20349;-46
2021/07/28 22:58:53;;;;;;;;;;;24.60;50.40;;;;;;8331032;28;19913;-48
2021/07/28 23:07:22;;;;;;;;;;;24.50;50.40;;;;;;8319771;28;20282;-46
2021/07/28 23:11:23;;;;;;;;;;;24.50;50.40;;;;;;8331331;28;20381;-46
2021/07/28 23:15:23;;;;;;;;;;;24.50;50.40;;;;;;8330457;28;19929;-44
2021/07/28 23:19:23;;;;;;;;;;;24.50;50.40;;;;;;8331050;28;19917;-45
2021/07/28 23:23:26;;;;;;;;;;;24.50;50.40;;;;;;8329918;28;19929;-45
2021/07/28 23:27:26;;;;;;;;;;;24.50;50.40;;;;;;8330262;28;19917;-45
2021/07/28 23:31:27;;;;;;;;;;;24.50;50.40;;;;;;8330362;28;20377;-44
2021/07/28 23:35:27;;;;;;;;;;;24.50;50.40;;;;;;8334338;28;19913;-45
2021/07/28 23:39:28;;;;;;;;;;;24.50;50.40;;;;;;8336691;28;19971;-44